Atlantic City, NJ

8:42 PM EST on November 13, 2019 (GMT -0500)
The Wheel At Steel Pier | | Change Station

Elev 15 ft 39.36 °N, 74.42 °W | Updated 12 minutes ago

Clear
Clear
33.2 °F
Feels Like 33 °F
N
1
Wind Variable Wind from NNW
Gusts 4.0 mph

Today
High -- | Low -- °F
--% Chance of Precip.
Yesterday
High -- | Low -- °F
Precip. -- in
Pressure 30.43 in
Visibility 10.0 miles
Clouds Clear
Windchill 33 °F
Dew Point 8 °F
Humidity 34%
Rainfall 0.00 in
Snow Depth Not available.
6:38 AM 4:44 PM
Full, 98% visible
METAR KACY 132354Z 00000KT 10SM CLR M03/M11 A3043 RMK AO2 SLP305 T10331106 10028 21033 53017
Pressure 30.43 in
Visibility 10.0 miles
Clouds Clear
Windchill 33 °F
Dew Point 8 °F
Humidity 34%
Rainfall 0.00 in
Snow Depth Not available.
6:38 AM 4:44 PM
Full, 98% visible
METAR KACY 132354Z 00000KT 10SM CLR M03/M11 A3043 RMK AO2 SLP305 T10331106 10028 21033 53017

Get Severe Weather Alerts

Thanks for signing up!

Be on the lookout for a verification email in your inbox.

You'll start receiving the daily forecast at 6 AM.

×

10-Day Weather Forecast

Almanac

Astronomy

Nov. 13, 2019 Rise Set
Actual Time
Civil Twilight
Nautical Twilight
Astronomical Twilight
Moon
Length of Visible Light
Length of Day
Tomorrow will be .
, % of the Moon is Illuminated

Today's Extremes

State Highs State Lows

Community

WunderPhotos

Category 6

Welcome to Category 6. This is the collective home for Weather Underground's featured writeups by Dr. Jeff Masters (right), Bob Henson (left), Chris Burt, and other regular contributors.

Nearby

Air Quality

  Air Quality AQ Index Pollutant
Not available.

Snow Depth

Station Depth Elevation

Earthquake Activity

City Distance Mag. Time & Date
Minimum magnitude displayed is 2.5.

Coastal Water Temperatures

Place Temperature

Stations

Nearby Weather Stations

Station Location Temp. Windchill Dew Point Humidity Wind Precip. Elev Updated Type
                   

Watches & Warnings

There are currently no watches in effect.